sensor_id;sensor_type;location;lat;lon;timestamp;temperature;humidity
61153;DHT22;47030;50.732;4.286;2022-07-19T00:01:37;22.10;72.80
61153;DHT22;47030;50.732;4.286;2022-07-19T00:04:03;22.10;72.90
61153;DHT22;47030;50.732;4.286;2022-07-19T00:06:29;22.00;72.60
61153;DHT22;47030;50.732;4.286;2022-07-19T00:08:55;22.00;73.30
61153;DHT22;47030;50.732;4.286;2022-07-19T00:11:20;22.00;72.90
61153;DHT22;47030;50.732;4.286;2022-07-19T00:13:46;22.00;73.00
61153;DHT22;47030;50.732;4.286;2022-07-19T00:16:12;22.00;72.20
61153;DHT22;47030;50.732;4.286;2022-07-19T00:18:38;22.10;71.50
61153;DHT22;47030;50.732;4.286;2022-07-19T00:21:04;22.10;71.20
61153;DHT22;47030;50.732;4.286;2022-07-19T00:23:30;22.10;70.80
61153;DHT22;47030;50.732;4.286;2022-07-19T00:25:55;22.20;70.60
61153;DHT22;47030;50.732;4.286;2022-07-19T00:28:21;22.20;70.40
61153;DHT22;47030;50.732;4.286;2022-07-19T00:30:47;22.20;70.50
61153;DHT22;47030;50.732;4.286;2022-07-19T00:33:13;22.20;70.40
61153;DHT22;47030;50.732;4.286;2022-07-19T00:35:40;22.20;70.50
61153;DHT22;47030;50.732;4.286;2022-07-19T00:38:10;22.20;70.10
61153;DHT22;47030;50.732;4.286;2022-07-19T00:40:37;22.20;69.30
61153;DHT22;47030;50.732;4.286;2022-07-19T00:43:05;22.40;68.70
61153;DHT22;47030;50.732;4.286;2022-07-19T00:45:31;22.40;68.60
61153;DHT22;47030;50.732;4.286;2022-07-19T00:47:57;22.30;68.80
61153;DHT22;47030;50.732;4.286;2022-07-19T00:50:23;22.30;68.70
61153;DHT22;47030;50.732;4.286;2022-07-19T00:52:52;22.30;68.30
61153;DHT22;47030;50.732;4.286;2022-07-19T00:55:19;22.30;68.00
61153;DHT22;47030;50.732;4.286;2022-07-19T00:57:46;22.20;67.90
61153;DHT22;47030;50.732;4.286;2022-07-19T01:00:13;22.20;67.80
61153;DHT22;47030;50.732;4.286;2022-07-19T01:02:41;22.10;67.50
61153;DHT22;47030;50.732;4.286;2022-07-19T01:05:08;22.20;67.20
61153;DHT22;47030;50.732;4.286;2022-07-19T01:07:34;22.10;67.10
61153;DHT22;47030;50.732;4.286;2022-07-19T01:10:04;22.10;67.30
61153;DHT22;47030;50.732;4.286;2022-07-19T01:12:32;22.10;67.40
61153;DHT22;47030;50.732;4.286;2022-07-19T01:14:58;22.10;67.60
61153;DHT22;47030;50.732;4.286;2022-07-19T01:17:25;22.20;67.70
61153;DHT22;47030;50.732;4.286;2022-07-19T01:19:51;22.10;68.00
61153;DHT22;47030;50.732;4.286;2022-07-19T01:22:17;22.10;68.40
61153;DHT22;47030;50.732;4.286;2022-07-19T01:24:42;22.00;68.60
61153;DHT22;47030;50.732;4.286;2022-07-19T01:27:08;22.00;68.70
61153;DHT22;47030;50.732;4.286;2022-07-19T01:29:36;22.00;69.30
61153;DHT22;47030;50.732;4.286;2022-07-19T01:32:03;22.00;68.90
61153;DHT22;47030;50.732;4.286;2022-07-19T01:34:29;22.00;69.00
61153;DHT22;47030;50.732;4.286;2022-07-19T01:36:55;21.90;69.00
61153;DHT22;47030;50.732;4.286;2022-07-19T01:39:21;21.90;69.80
61153;DHT22;47030;50.732;4.286;2022-07-19T01:41:46;21.90;69.90
61153;DHT22;47030;50.732;4.286;2022-07-19T01:44:12;21.80;70.10
61153;DHT22;47030;50.732;4.286;2022-07-19T01:46:38;21.80;69.90
61153;DHT22;47030;50.732;4.286;2022-07-19T01:49:04;21.70;69.50
61153;DHT22;47030;50.732;4.286;2022-07-19T01:51:30;21.70;68.60
61153;DHT22;47030;50.732;4.286;2022-07-19T01:53:56;21.80;68.40
61153;DHT22;47030;50.732;4.286;2022-07-19T01:56:22;21.80;68.80
61153;DHT22;47030;50.732;4.286;2022-07-19T01:58:48;21.70;69.30
61153;DHT22;47030;50.732;4.286;2022-07-19T02:01:14;21.60;68.60
61153;DHT22;47030;50.732;4.286;2022-07-19T02:03:39;21.60;68.20
61153;DHT22;47030;50.732;4.286;2022-07-19T02:06:05;21.60;67.80
61153;DHT22;47030;50.732;4.286;2022-07-19T02:08:31;21.60;69.10
61153;DHT22;47030;50.732;4.286;2022-07-19T02:10:57;21.60;69.20
61153;DHT22;47030;50.732;4.286;2022-07-19T02:13:24;21.50;67.80
61153;DHT22;47030;50.732;4.286;2022-07-19T02:15:51;21.50;67.70
61153;DHT22;47030;50.732;4.286;2022-07-19T02:18:18;21.60;69.40
61153;DHT22;47030;50.732;4.286;2022-07-19T02:20:44;21.50;71.40
61153;DHT22;47030;50.732;4.286;2022-07-19T02:23:09;21.40;71.80
61153;DHT22;47030;50.732;4.286;2022-07-19T02:25:35;21.20;71.20
61153;DHT22;47030;50.732;4.286;2022-07-19T02:28:01;21.20;70.40
61153;DHT22;47030;50.732;4.286;2022-07-19T02:30:27;21.10;70.60
61153;DHT22;47030;50.732;4.286;2022-07-19T02:32:53;21.10;70.60
61153;DHT22;47030;50.732;4.286;2022-07-19T02:35:19;21.10;71.30
61153;DHT22;47030;50.732;4.286;2022-07-19T02:37:45;21.10;71.80
61153;DHT22;47030;50.732;4.286;2022-07-19T02:40:11;21.00;70.10
61153;DHT22;47030;50.732;4.286;2022-07-19T02:42:37;21.10;68.80
61153;DHT22;47030;50.732;4.286;2022-07-19T02:45:04;21.10;69.30
61153;DHT22;47030;50.732;4.286;2022-07-19T02:47:30;21.20;68.20
61153;DHT22;47030;50.732;4.286;2022-07-19T02:49:56;21.20;71.00
61153;DHT22;47030;50.732;4.286;2022-07-19T02:52:21;21.10;71.20
61153;DHT22;47030;50.732;4.286;2022-07-19T02:54:47;21.10;71.40
61153;DHT22;47030;50.732;4.286;2022-07-19T02:57:13;21.10;69.80
61153;DHT22;47030;50.732;4.286;2022-07-19T02:59:39;21.10;70.80
61153;DHT22;47030;50.732;4.286;2022-07-19T03:02:05;21.00;71.20
61153;DHT22;47030;50.732;4.286;2022-07-19T03:04:30;21.00;70.80
61153;DHT22;47030;50.732;4.286;2022-07-19T03:06:57;20.90;71.00
61153;DHT22;47030;50.732;4.286;2022-07-19T03:09:23;20.80;71.60
61153;DHT22;47030;50.732;4.286;2022-07-19T03:11:48;20.80;72.60
61153;DHT22;47030;50.732;4.286;2022-07-19T03:14:14;20.80;72.50
61153;DHT22;47030;50.732;4.286;2022-07-19T03:16:40;20.70;71.80
61153;DHT22;47030;50.732;4.286;2022-07-19T03:19:05;20.70;71.30
61153;DHT22;47030;50.732;4.286;2022-07-19T03:21:33;20.70;71.40
61153;DHT22;47030;50.732;4.286;2022-07-19T03:23:59;20.70;70.70
61153;DHT22;47030;50.732;4.286;2022-07-19T03:26:25;20.70;71.40
61153;DHT22;47030;50.732;4.286;2022-07-19T03:28:51;20.70;71.50
61153;DHT22;47030;50.732;4.286;2022-07-19T03:31:18;20.70;71.60
61153;DHT22;47030;50.732;4.286;2022-07-19T03:33:44;20.60;71.50
61153;DHT22;47030;50.732;4.286;2022-07-19T03:36:10;20.60;71.50
61153;DHT22;47030;50.732;4.286;2022-07-19T03:38:35;20.70;72.00
61153;DHT22;47030;50.732;4.286;2022-07-19T03:41:02;20.70;72.10
61153;DHT22;47030;50.732;4.286;2022-07-19T03:43:28;20.70;71.40
61153;DHT22;47030;50.732;4.286;2022-07-19T03:45:53;20.70;71.30
61153;DHT22;47030;50.732;4.286;2022-07-19T03:48:19;20.70;71.40
61153;DHT22;47030;50.732;4.286;2022-07-19T03:50:46;20.70;71.30
61153;DHT22;47030;50.732;4.286;2022-07-19T03:53:12;20.70;71.00
61153;DHT22;47030;50.732;4.286;2022-07-19T03:55:39;20.80;70.60
61153;DHT22;47030;50.732;4.286;2022-07-19T03:58:05;20.80;69.50
61153;DHT22;47030;50.732;4.286;2022-07-19T04:00:30;21.00;69.50
61153;DHT22;47030;50.732;4.286;2022-07-19T04:02:57;21.00;69.20
61153;DHT22;47030;50.732;4.286;2022-07-19T04:05:23;21.00;69.80
61153;DHT22;47030;50.732;4.286;2022-07-19T04:07:48;21.00;70.10
61153;DHT22;47030;50.732;4.286;2022-07-19T04:10:14;21.10;70.00
61153;DHT22;47030;50.732;4.286;2022-07-19T04:12:40;21.00;70.60
61153;DHT22;47030;50.732;4.286;2022-07-19T04:15:07;21.00;70.80
61153;DHT22;47030;50.732;4.286;2022-07-19T04:17:32;21.00;70.40
61153;DHT22;47030;50.732;4.286;2022-07-19T04:19:58;21.00;70.20
61153;DHT22;47030;50.732;4.286;2022-07-19T04:22:24;21.30;69.10
61153;DHT22;47030;50.732;4.286;2022-07-19T04:24:50;21.60;68.50
61153;DHT22;47030;50.732;4.286;2022-07-19T04:27:17;21.90;66.70
61153;DHT22;47030;50.732;4.286;2022-07-19T04:29:43;22.10;66.30
61153;DHT22;47030;50.732;4.286;2022-07-19T04:32:08;22.20;66.40
61153;DHT22;47030;50.732;4.286;2022-07-19T04:34:34;22.20;66.60
61153;DHT22;47030;50.732;4.286;2022-07-19T04:37:00;22.30;66.30
61153;DHT22;47030;50.732;4.286;2022-07-19T04:39:26;22.30;66.80
61153;DHT22;47030;50.732;4.286;2022-07-19T04:41:51;22.60;65.90
61153;DHT22;47030;50.732;4.286;2022-07-19T04:44:17;22.90;65.00
61153;DHT22;47030;50.732;4.286;2022-07-19T04:46:43;23.60;63.30
61153;DHT22;47030;50.732;4.286;2022-07-19T04:49:09;24.20;62.40
61153;DHT22;47030;50.732;4.286;2022-07-19T04:51:34;24.70;60.90
61153;DHT22;47030;50.732;4.286;2022-07-19T04:54:00;25.10;60.90
61153;DHT22;47030;50.732;4.286;2022-07-19T04:56:26;25.50;59.60
61153;DHT22;47030;50.732;4.286;2022-07-19T04:58:52;26.10;58.00
61153;DHT22;47030;50.732;4.286;2022-07-19T05:01:18;26.80;56.80
61153;DHT22;47030;50.732;4.286;2022-07-19T05:03:46;27.50;54.80
61153;DHT22;47030;50.732;4.286;2022-07-19T05:06:12;28.00;53.60
61153;DHT22;47030;50.732;4.286;2022-07-19T05:08:38;28.60;51.60
61153;DHT22;47030;50.732;4.286;2022-07-19T05:11:03;29.30;50.10
61153;DHT22;47030;50.732;4.286;2022-07-19T05:13:29;29.80;48.90
61153;DHT22;47030;50.732;4.286;2022-07-19T05:15:55;30.20;47.60
61153;DHT22;47030;50.732;4.286;2022-07-19T05:18:21;30.60;46.70
61153;DHT22;47030;50.732;4.286;2022-07-19T05:20:47;30.70;45.80
61153;DHT22;47030;50.732;4.286;2022-07-19T05:23:12;30.70;45.30
61153;DHT22;47030;50.732;4.286;2022-07-19T05:25:38;30.60;46.20
61153;DHT22;47030;50.732;4.286;2022-07-19T05:28:04;30.90;46.70
61153;DHT22;47030;50.732;4.286;2022-07-19T05:30:30;31.60;44.60
61153;DHT22;47030;50.732;4.286;2022-07-19T05:32:56;32.10;43.30
61153;DHT22;47030;50.732;4.286;2022-07-19T05:35:21;32.50;42.50
61153;DHT22;47030;50.732;4.286;2022-07-19T05:37:47;32.90;43.10
61153;DHT22;47030;50.732;4.286;2022-07-19T05:40:13;33.50;41.50
61153;DHT22;47030;50.732;4.286;2022-07-19T05:42:39;34.30;40.20
61153;DHT22;47030;50.732;4.286;2022-07-19T05:45:05;34.80;39.40
61153;DHT22;47030;50.732;4.286;2022-07-19T05:47:31;35.30;38.30
61153;DHT22;47030;50.732;4.286;2022-07-19T05:49:56;35.40;38.80
61153;DHT22;47030;50.732;4.286;2022-07-19T05:52:24;35.70;37.70
61153;DHT22;47030;50.732;4.286;2022-07-19T05:54:50;36.30;38.20
61153;DHT22;47030;50.732;4.286;2022-07-19T05:57:16;37.20;36.50
61153;DHT22;47030;50.732;4.286;2022-07-19T05:59:42;37.80;35.30
61153;DHT22;47030;50.732;4.286;2022-07-19T06:02:07;38.50;34.60
61153;DHT22;47030;50.732;4.286;2022-07-19T06:04:33;39.10;33.90
61153;DHT22;47030;50.732;4.286;2022-07-19T06:06:59;39.50;33.50
61153;DHT22;47030;50.732;4.286;2022-07-19T06:09:24;39.90;32.70
61153;DHT22;47030;50.732;4.286;2022-07-19T06:11:50;40.30;32.70
61153;DHT22;47030;50.732;4.286;2022-07-19T06:14:17;41.00;32.00
61153;DHT22;47030;50.732;4.286;2022-07-19T06:16:43;41.50;31.60
61153;DHT22;47030;50.732;4.286;2022-07-19T06:19:09;41.90;31.20
61153;DHT22;47030;50.732;4.286;2022-07-19T06:21:37;42.30;30.70
61153;DHT22;47030;50.732;4.286;2022-07-19T06:24:02;42.70;30.40
61153;DHT22;47030;50.732;4.286;2022-07-19T06:26:28;43.10;30.10
61153;DHT22;47030;50.732;4.286;2022-07-19T06:28:55;43.50;29.60
61153;DHT22;47030;50.732;4.286;2022-07-19T06:31:21;43.70;29.60
61153;DHT22;47030;50.732;4.286;2022-07-19T06:33:49;44.00;29.30
61153;DHT22;47030;50.732;4.286;2022-07-19T06:36:16;44.30;29.40
61153;DHT22;47030;50.732;4.286;2022-07-19T06:38:42;44.80;29.00
61153;DHT22;47030;50.732;4.286;2022-07-19T06:41:08;45.30;29.00
61153;DHT22;47030;50.732;4.286;2022-07-19T06:43:35;45.60;28.70
61153;DHT22;47030;50.732;4.286;2022-07-19T06:46:01;45.70;28.50
61153;DHT22;47030;50.732;4.286;2022-07-19T06:48:27;46.00;28.40
61153;DHT22;47030;50.732;4.286;2022-07-19T06:50:53;46.20;28.20
61153;DHT22;47030;50.732;4.286;2022-07-19T06:53:19;46.80;28.40
61153;DHT22;47030;50.732;4.286;2022-07-19T06:55:50;47.20;27.90
61153;DHT22;47030;50.732;4.286;2022-07-19T06:58:19;47.50;27.60
61153;DHT22;47030;50.732;4.286;2022-07-19T07:00:45;47.60;27.70
61153;DHT22;47030;50.732;4.286;2022-07-19T07:03:11;48.10;27.50
61153;DHT22;47030;50.732;4.286;2022-07-19T07:05:37;48.30;27.30
61153;DHT22;47030;50.732;4.286;2022-07-19T07:08:03;48.70;26.90
61153;DHT22;47030;50.732;4.286;2022-07-19T07:10:29;49.00;26.80
61153;DHT22;47030;50.732;4.286;2022-07-19T07:12:55;49.20;26.70
61153;DHT22;47030;50.732;4.286;2022-07-19T07:15:20;49.40;27.00
61153;DHT22;47030;50.732;4.286;2022-07-19T07:17:46;49.80;26.40
61153;DHT22;47030;50.732;4.286;2022-07-19T07:20:12;49.80;25.70
61153;DHT22;47030;50.732;4.286;2022-07-19T07:22:38;50.00;25.40
61153;DHT22;47030;50.732;4.286;2022-07-19T07:25:04;49.80;25.60
61153;DHT22;47030;50.732;4.286;2022-07-19T07:27:31;50.00;26.00
61153;DHT22;47030;50.732;4.286;2022-07-19T07:29:57;50.10;25.30
61153;DHT22;47030;50.732;4.286;2022-07-19T07:32:22;50.00;25.00
61153;DHT22;47030;50.732;4.286;2022-07-19T07:34:48;50.10;25.40
61153;DHT22;47030;50.732;4.286;2022-07-19T07:37:14;50.40;25.70
61153;DHT22;47030;50.732;4.286;2022-07-19T07:39:40;50.90;25.30
61153;DHT22;47030;50.732;4.286;2022-07-19T07:42:06;51.10;25.80
61153;DHT22;47030;50.732;4.286;2022-07-19T07:44:32;51.40;25.00
61153;DHT22;47030;50.732;4.286;2022-07-19T07:47:00;51.80;25.40
61153;DHT22;47030;50.732;4.286;2022-07-19T07:49:26;51.70;24.50
61153;DHT22;47030;50.732;4.286;2022-07-19T07:51:52;51.70;24.50
61153;DHT22;47030;50.732;4.286;2022-07-19T07:54:18;50.90;24.40
61153;DHT22;47030;50.732;4.286;2022-07-19T07:56:44;50.60;24.60
61153;DHT22;47030;50.732;4.286;2022-07-19T07:59:10;50.70;25.10
61153;DHT22;47030;50.732;4.286;2022-07-19T08:01:36;51.10;24.70
61153;DHT22;47030;50.732;4.286;2022-07-19T08:04:03;51.40;25.00
61153;DHT22;47030;50.732;4.286;2022-07-19T08:06:29;52.00;25.00
61153;DHT22;47030;50.732;4.286;2022-07-19T08:08:55;52.20;24.00
61153;DHT22;47030;50.732;4.286;2022-07-19T08:11:21;51.50;23.90
61153;DHT22;47030;50.732;4.286;2022-07-19T08:13:47;51.80;23.70
61153;DHT22;47030;50.732;4.286;2022-07-19T08:16:15;51.80;23.80
61153;DHT22;47030;50.732;4.286;2022-07-19T08:18:43;51.80;23.80
61153;DHT22;47030;50.732;4.286;2022-07-19T08:21:09;52.20;24.00
61153;DHT22;47030;50.732;4.286;2022-07-19T08:23:35;52.50;23.90
61153;DHT22;47030;50.732;4.286;2022-07-19T08:26:01;53.00;24.70
61153;DHT22;47030;50.732;4.286;2022-07-19T08:28:27;53.30;23.40
61153;DHT22;47030;50.732;4.286;2022-07-19T08:30:53;53.60;23.70
61153;DHT22;47030;50.732;4.286;2022-07-19T08:33:18;52.60;22.70
61153;DHT22;47030;50.732;4.286;2022-07-19T08:35:44;52.30;23.10
61153;DHT22;47030;50.732;4.286;2022-07-19T08:38:10;52.00;23.70
61153;DHT22;47030;50.732;4.286;2022-07-19T08:40:37;52.50;23.60
61153;DHT22;47030;50.732;4.286;2022-07-19T08:43:06;52.80;23.50
61153;DHT22;47030;50.732;4.286;2022-07-19T08:45:33;52.90;23.00
61153;DHT22;47030;50.732;4.286;2022-07-19T08:48:04;52.50;22.90
61153;DHT22;47030;50.732;4.286;2022-07-19T08:50:30;52.50;22.80
61153;DHT22;47030;50.732;4.286;2022-07-19T08:52:57;52.50;23.00
61153;DHT22;47030;50.732;4.286;2022-07-19T08:55:24;52.40;22.80
61153;DHT22;47030;50.732;4.286;2022-07-19T08:57:50;51.90;22.90
61153;DHT22;47030;50.732;4.286;2022-07-19T09:00:24;52.20;23.50
61153;DHT22;47030;50.732;4.286;2022-07-19T09:05:18;53.50;22.80
61153;DHT22;47030;50.732;4.286;2022-07-19T09:08:06;53.60;23.30
61153;DHT22;47030;50.732;4.286;2022-07-19T09:10:34;53.60;22.50
61153;DHT22;47030;50.732;4.286;2022-07-19T09:13:11;53.10;22.40
61153;DHT22;47030;50.732;4.286;2022-07-19T09:15:45;52.70;21.90
61153;DHT22;47030;50.732;4.286;2022-07-19T09:18:30;51.70;22.30
61153;DHT22;47030;50.732;4.286;2022-07-19T09:20:59;51.90;23.00
61153;DHT22;47030;50.732;4.286;2022-07-19T09:23:25;52.20;22.80
61153;DHT22;47030;50.732;4.286;2022-07-19T09:25:56;52.10;22.60
61153;DHT22;47030;50.732;4.286;2022-07-19T09:28:24;51.30;22.50
61153;DHT22;47030;50.732;4.286;2022-07-19T09:30:53;51.60;22.60
61153;DHT22;47030;50.732;4.286;2022-07-19T09:33:23;51.90;22.50
61153;DHT22;47030;50.732;4.286;2022-07-19T09:35:58;52.20;22.60
61153;DHT22;47030;50.732;4.286;2022-07-19T09:41:11;51.40;22.40
61153;DHT22;47030;50.732;4.286;2022-07-19T09:44:02;51.70;22.90
61153;DHT22;47030;50.732;4.286;2022-07-19T09:46:33;52.10;22.00
61153;DHT22;47030;50.732;4.286;2022-07-19T09:51:36;51.80;22.20
61153;DHT22;47030;50.732;4.286;2022-07-19T09:54:04;51.20;22.10
61153;DHT22;47030;50.732;4.286;2022-07-19T09:56:31;51.20;22.20
61153;DHT22;47030;50.732;4.286;2022-07-19T09:58:58;51.60;22.80
61153;DHT22;47030;50.732;4.286;2022-07-19T10:01:24;52.10;22.70
61153;DHT22;47030;50.732;4.286;2022-07-19T10:03:55;52.70;22.00
61153;DHT22;47030;50.732;4.286;2022-07-19T10:06:25;52.40;21.60
61153;DHT22;47030;50.732;4.286;2022-07-19T10:08:52;51.80;21.80
61153;DHT22;47030;50.732;4.286;2022-07-19T10:11:18;51.10;21.80
61153;DHT22;47030;50.732;4.286;2022-07-19T10:13:45;51.30;21.80
61153;DHT22;47030;50.732;4.286;2022-07-19T10:16:17;51.70;22.00
61153;DHT22;47030;50.732;4.286;2022-07-19T10:19:05;52.70;22.90
61153;DHT22;47030;50.732;4.286;2022-07-19T10:21:35;53.20;22.10
61153;DHT22;47030;50.732;4.286;2022-07-19T10:24:01;53.50;21.80
61153;DHT22;47030;50.732;4.286;2022-07-19T10:26:37;53.00;21.30
61153;DHT22;47030;50.732;4.286;2022-07-19T10:31:38;51.90;21.60
61153;DHT22;47030;50.732;4.286;2022-07-19T10:34:09;51.60;21.80
61153;DHT22;47030;50.732;4.286;2022-07-19T10:42:06;51.80;21.90
61153;DHT22;47030;50.732;4.286;2022-07-19T10:44:34;50.90;21.90
61153;DHT22;47030;50.732;4.286;2022-07-19T10:47:00;51.00;22.20
61153;DHT22;47030;50.732;4.286;2022-07-19T10:49:59;51.20;21.50
61153;DHT22;47030;50.732;4.286;2022-07-19T10:58:09;49.10;21.80
61153;DHT22;47030;50.732;4.286;2022-07-19T11:00:48;48.10;22.20
61153;DHT22;47030;50.732;4.286;2022-07-19T11:05:51;47.50;22.80
61153;DHT22;47030;50.732;4.286;2022-07-19T11:11:10;48.00;23.20
61153;DHT22;47030;50.732;4.286;2022-07-19T11:13:37;48.10;22.80
61153;DHT22;47030;50.732;4.286;2022-07-19T11:16:03;48.00;22.70
61153;DHT22;47030;50.732;4.286;2022-07-19T11:18:30;47.80;22.70
61153;DHT22;47030;50.732;4.286;2022-07-19T11:21:00;48.00;22.80
61153;DHT22;47030;50.732;4.286;2022-07-19T11:23:32;48.10;23.00
61153;DHT22;47030;50.732;4.286;2022-07-19T11:28:33;47.00;22.40
61153;DHT22;47030;50.732;4.286;2022-07-19T11:30:59;46.50;23.00
61153;DHT22;47030;50.732;4.286;2022-07-19T11:33:25;46.00;23.30
61153;DHT22;47030;50.732;4.286;2022-07-19T11:36:00;45.80;23.50
61153;DHT22;47030;50.732;4.286;2022-07-19T11:38:36;45.10;23.10
61153;DHT22;47030;50.732;4.286;2022-07-19T11:41:02;44.60;23.30
61153;DHT22;47030;50.732;4.286;2022-07-19T11:43:29;44.10;25.10
61153;DHT22;47030;50.732;4.286;2022-07-19T11:45:54;43.90;24.00
61153;DHT22;47030;50.732;4.286;2022-07-19T11:48:28;43.60;24.30
61153;DHT22;47030;50.732;4.286;2022-07-19T11:51:01;43.20;24.40
61153;DHT22;47030;50.732;4.286;2022-07-19T11:53:27;42.90;24.20
61153;DHT22;47030;50.732;4.286;2022-07-19T11:55:53;43.00;24.60
61153;DHT22;47030;50.732;4.286;2022-07-19T11:58:19;43.30;24.60
61153;DHT22;47030;50.732;4.286;2022-07-19T12:00:45;43.20;23.90
61153;DHT22;47030;50.732;4.286;2022-07-19T12:03:16;43.20;24.30
61153;DHT22;47030;50.732;4.286;2022-07-19T12:05:54;42.90;24.50
61153;DHT22;47030;50.732;4.286;2022-07-19T12:08:43;42.60;25.10
61153;DHT22;47030;50.732;4.286;2022-07-19T12:11:23;42.60;24.60
61153;DHT22;47030;50.732;4.286;2022-07-19T12:13:51;42.40;24.50
61153;DHT22;47030;50.732;4.286;2022-07-19T12:16:19;42.00;25.10
61153;DHT22;47030;50.732;4.286;2022-07-19T12:18:49;42.00;25.40
61153;DHT22;47030;50.732;4.286;2022-07-19T12:21:17;41.80;24.80
61153;DHT22;47030;50.732;4.286;2022-07-19T12:26:39;41.50;25.00
61153;DHT22;47030;50.732;4.286;2022-07-19T12:29:20;41.30;25.50
61153;DHT22;47030;50.732;4.286;2022-07-19T12:31:47;40.90;25.60
61153;DHT22;47030;50.732;4.286;2022-07-19T12:34:14;41.00;25.70
61153;DHT22;47030;50.732;4.286;2022-07-19T12:36:41;40.90;25.50
61153;DHT22;47030;50.732;4.286;2022-07-19T12:39:17;40.80;25.90
61153;DHT22;47030;50.732;4.286;2022-07-19T12:41:55;40.60;26.00
61153;DHT22;47030;50.732;4.286;2022-07-19T12:44:21;40.50;26.30
61153;DHT22;47030;50.732;4.286;2022-07-19T12:46:47;40.40;25.80
61153;DHT22;47030;50.732;4.286;2022-07-19T12:49:12;40.40;26.30
61153;DHT22;47030;50.732;4.286;2022-07-19T12:51:38;40.20;25.10
61153;DHT22;47030;50.732;4.286;2022-07-19T12:54:11;40.10;25.70
61153;DHT22;47030;50.732;4.286;2022-07-19T12:56:38;40.10;25.70
61153;DHT22;47030;50.732;4.286;2022-07-19T12:59:04;40.00;25.90
61153;DHT22;47030;50.732;4.286;2022-07-19T13:01:48;39.70;25.40
61153;DHT22;47030;50.732;4.286;2022-07-19T13:04:14;39.60;26.50
61153;DHT22;47030;50.732;4.286;2022-07-19T13:06:39;39.70;26.70
61153;DHT22;47030;50.732;4.286;2022-07-19T13:09:05;39.80;26.40
61153;DHT22;47030;50.732;4.286;2022-07-19T13:11:32;39.90;26.10
61153;DHT22;47030;50.732;4.286;2022-07-19T13:13:58;39.80;26.00
61153;DHT22;47030;50.732;4.286;2022-07-19T13:16:24;39.80;25.80
61153;DHT22;47030;50.732;4.286;2022-07-19T13:18:50;39.80;25.40
61153;DHT22;47030;50.732;4.286;2022-07-19T13:21:19;39.80;25.10
61153;DHT22;47030;50.732;4.286;2022-07-19T13:23:47;39.80;26.00
61153;DHT22;47030;50.732;4.286;2022-07-19T13:26:13;39.70;25.90
61153;DHT22;47030;50.732;4.286;2022-07-19T13:28:39;39.70;25.10
61153;DHT22;47030;50.732;4.286;2022-07-19T13:31:05;39.60;24.50
61153;DHT22;47030;50.732;4.286;2022-07-19T13:33:31;39.60;25.00
61153;DHT22;47030;50.732;4.286;2022-07-19T13:35:56;39.60;23.70
61153;DHT22;47030;50.732;4.286;2022-07-19T13:38:22;39.60;24.60
61153;DHT22;47030;50.732;4.286;2022-07-19T13:40:48;39.50;23.10
61153;DHT22;47030;50.732;4.286;2022-07-19T13:43:14;39.40;23.20
61153;DHT22;47030;50.732;4.286;2022-07-19T13:45:40;39.30;23.30
61153;DHT22;47030;50.732;4.286;2022-07-19T13:48:06;39.10;23.80
61153;DHT22;47030;50.732;4.286;2022-07-19T13:50:32;39.20;24.90
61153;DHT22;47030;50.732;4.286;2022-07-19T13:52:59;39.40;24.40
61153;DHT22;47030;50.732;4.286;2022-07-19T13:55:25;39.40;24.90
61153;DHT22;47030;50.732;4.286;2022-07-19T13:57:51;39.50;25.00
61153;DHT22;47030;50.732;4.286;2022-07-19T14:00:17;39.60;24.30
61153;DHT22;47030;50.732;4.286;2022-07-19T14:02:44;39.60;25.00
61153;DHT22;47030;50.732;4.286;2022-07-19T14:05:10;39.50;23.60
61153;DHT22;47030;50.732;4.286;2022-07-19T14:07:36;39.60;24.10
61153;DHT22;47030;50.732;4.286;2022-07-19T14:10:03;39.50;24.30
61153;DHT22;47030;50.732;4.286;2022-07-19T14:12:29;39.40;24.20
61153;DHT22;47030;50.732;4.286;2022-07-19T14:14:56;39.50;23.20
61153;DHT22;47030;50.732;4.286;2022-07-19T14:17:21;39.50;24.10
61153;DHT22;47030;50.732;4.286;2022-07-19T14:19:47;39.40;24.10
61153;DHT22;47030;50.732;4.286;2022-07-19T14:22:13;39.40;24.30
61153;DHT22;47030;50.732;4.286;2022-07-19T14:24:39;39.20;24.00
61153;DHT22;47030;50.732;4.286;2022-07-19T14:27:05;39.20;23.90
61153;DHT22;47030;50.732;4.286;2022-07-19T14:29:31;39.20;24.20
61153;DHT22;47030;50.732;4.286;2022-07-19T14:31:56;39.20;23.70
61153;DHT22;47030;50.732;4.286;2022-07-19T14:34:22;39.10;23.20
61153;DHT22;47030;50.732;4.286;2022-07-19T14:36:48;39.10;22.90
61153;DHT22;47030;50.732;4.286;2022-07-19T14:39:14;39.10;23.40
61153;DHT22;47030;50.732;4.286;2022-07-19T14:41:39;39.00;23.40
61153;DHT22;47030;50.732;4.286;2022-07-19T14:44:05;39.10;23.40
61153;DHT22;47030;50.732;4.286;2022-07-19T14:46:31;39.20;22.80
61153;DHT22;47030;50.732;4.286;2022-07-19T14:48:57;39.20;23.30
61153;DHT22;47030;50.732;4.286;2022-07-19T14:51:23;39.10;23.50
61153;DHT22;47030;50.732;4.286;2022-07-19T14:53:48;39.10;23.70
61153;DHT22;47030;50.732;4.286;2022-07-19T14:56:14;39.00;23.30
61153;DHT22;47030;50.732;4.286;2022-07-19T14:58:40;39.10;23.20
61153;DHT22;47030;50.732;4.286;2022-07-19T15:01:09;39.00;23.70
61153;DHT22;47030;50.732;4.286;2022-07-19T15:03:35;39.00;23.30
61153;DHT22;47030;50.732;4.286;2022-07-19T15:06:01;38.80;22.90
61153;DHT22;47030;50.732;4.286;2022-07-19T15:08:27;38.90;23.40
61153;DHT22;47030;50.732;4.286;2022-07-19T15:10:53;38.90;23.10
61153;DHT22;47030;50.732;4.286;2022-07-19T15:13:19;38.90;23.60
61153;DHT22;47030;50.732;4.286;2022-07-19T15:15:45;38.80;23.50
61153;DHT22;47030;50.732;4.286;2022-07-19T15:18:11;38.80;23.50
61153;DHT22;47030;50.732;4.286;2022-07-19T15:20:38;38.90;24.30
61153;DHT22;47030;50.732;4.286;2022-07-19T15:23:04;38.80;22.90
61153;DHT22;47030;50.732;4.286;2022-07-19T15:25:30;38.80;23.10
61153;DHT22;47030;50.732;4.286;2022-07-19T15:27:56;38.80;23.20
61153;DHT22;47030;50.732;4.286;2022-07-19T15:30:23;38.80;24.00
61153;DHT22;47030;50.732;4.286;2022-07-19T15:32:49;38.80;23.30
61153;DHT22;47030;50.732;4.286;2022-07-19T15:35:15;38.80;23.50
61153;DHT22;47030;50.732;4.286;2022-07-19T15:37:41;38.80;23.60
61153;DHT22;47030;50.732;4.286;2022-07-19T15:40:08;38.90;23.80
61153;DHT22;47030;50.732;4.286;2022-07-19T15:42:46;39.00;23.70
61153;DHT22;47030;50.732;4.286;2022-07-19T15:45:13;38.90;24.40
61153;DHT22;47030;50.732;4.286;2022-07-19T15:47:39;38.90;24.30
61153;DHT22;47030;50.732;4.286;2022-07-19T15:50:07;38.90;24.30
61153;DHT22;47030;50.732;4.286;2022-07-19T15:52:33;38.90;23.10
61153;DHT22;47030;50.732;4.286;2022-07-19T15:54:59;38.80;23.00
61153;DHT22;47030;50.732;4.286;2022-07-19T15:57:26;38.70;23.20
61153;DHT22;47030;50.732;4.286;2022-07-19T15:59:52;38.70;22.80
61153;DHT22;47030;50.732;4.286;2022-07-19T16:02:17;38.60;23.20